ftmx65

TAF MMCV 090514Z 0906/1006 18005KT 6SM HZ SCT030 SCT100 
         TEMPO 0911/0915 2SM BR HZ BKN008 
         FM091800 16014KT 6SM HZ SCT015 SCT100 BKN250 
         FM100500 16005KT 6SM HZ SCT030=
TAF MMMA 090514Z 0906/1006 07005KT P6SM BKN010 
         TEMPO 0911/0915 2SM BR HZ BKN008 
         FM091800 18016KT P6SM BKN018 BKN250 
         FM100500 16005KT P6SM BKN015=
TAF MMNL 090514Z 0906/1006 16006KT P6SM SKC 
         TEMPO 0911/0915 1 1/2SM BR HZ BKN006 
         FM091800 22008KT P6SM SCT020 BKN250 
         TEMPO 0920/0924 BKN020 
         FM100500 22005KT P6SM SCT250=
TAF MMRX 090514Z 0906/1006 07005KT P6SM BKN015 
         TEMPO 0911/0915 2SM BR HZ BKN008 
         FM091800 18016KT P6SM BKN018 BKN250 
         FM100500 16005KT P6SM BKN015=
TAF MMPA 090514Z 0906/1006 09006KT 5SM HZ SKC 
         TEMPO 0911/0915 2SM BR HZ BKN010 
         FM091800 06008KT 5SM HZ BKN020 BKN080 OVC250 
         FM100500 06005KT 5SM HZ SCT015=
TAF COR MMPG 090515Z 0906/1006 12006KT P6SM SKC 
         TEMPO 0911/0915 1SM BR HZ BKN005 
         FM091800 27010KT P6SM SCT015 SCT100 BKN250 
         FM100500 25005KT P6SM SCT250=